Time;durP1;ratioP1;P1;durP2;ratioP2;P2;SDS_P1;SDS_P2;PMS_P1;PMS_P2;Temp;Humidity;BMP_temperature;BMP_pressure;BME280_temperature;BME280_humidity;BME280_pressure;Samples;Min_cycle;Max_cycle;Signal;HPM_P1;HPM_P2
2024/02/10 00:01:44;;;;;;;;;;;10.40;91.10;;;;;;4965982;28;19926;-66
2024/02/10 00:04:17;;;;;;;;;;;10.40;91.10;;;;;;4968539;28;20353;-68
2024/02/10 00:06:54;;;;;;;;;;;10.40;91.10;;;;;;4967706;28;20464;-65
2024/02/10 00:09:27;;;;;;;;;;;10.40;91.10;;;;;;4968493;28;19949;-67
2024/02/10 00:12:01;;;;;;;;;;;10.40;91.20;;;;;;4968880;28;20009;-66
2024/02/10 00:14:34;;;;;;;;;;;10.40;91.20;;;;;;4970066;28;19937;-68
2024/02/10 00:17:09;;;;;;;;;;;10.40;91.20;;;;;;4967438;28;19937;-68
2024/02/10 00:19:46;;;;;;;;;;;10.40;91.20;;;;;;4968915;28;19926;-66
2024/02/10 00:22:22;;;;;;;;;;;10.40;91.10;;;;;;4968047;28;19933;-67
2024/02/10 00:24:57;;;;;;;;;;;10.40;91.20;;;;;;4968993;28;19933;-66
2024/02/10 00:27:30;;;;;;;;;;;10.40;91.20;;;;;;4968395;28;19926;-67
2024/02/10 00:30:04;;;;;;;;;;;10.40;91.20;;;;;;4968455;28;20004;-67
2024/02/10 00:32:39;;;;;;;;;;;10.40;91.20;;;;;;4968371;28;19973;-61
2024/02/10 00:35:14;;;;;;;;;;;10.30;91.20;;;;;;4966746;28;19934;-60
2024/02/10 00:37:47;;;;;;;;;;;10.40;91.20;;;;;;4969671;28;19930;-59
2024/02/10 00:40:20;;;;;;;;;;;10.30;91.30;;;;;;4968569;28;19989;-59
2024/02/10 00:42:53;;;;;;;;;;;10.30;91.40;;;;;;4967342;28;20405;-60
2024/02/10 00:45:27;;;;;;;;;;;10.30;91.30;;;;;;4969492;28;20025;-60
2024/02/10 00:48:02;;;;;;;;;;;10.30;91.30;;;;;;4968779;28;20365;-61
2024/02/10 00:50:35;;;;;;;;;;;10.30;91.20;;;;;;4969336;28;20009;-60
2024/02/10 00:53:08;;;;;;;;;;;10.30;91.30;;;;;;4967844;28;20020;-60
2024/02/10 00:55:41;;;;;;;;;;;10.30;91.20;;;;;;4968982;28;20286;-60
2024/02/10 00:58:08;;;;;;;;;;;10.20;91.30;;;;;;4968201;28;19940;-60
2024/02/10 01:00:42;;;;;;;;;;;10.30;91.30;;;;;;4967855;28;19930;-60
2024/02/10 01:03:16;;;;;;;;;;;10.30;91.20;;;;;;4970327;28;19934;-59
2024/02/10 01:05:50;;;;;;;;;;;10.20;91.20;;;;;;4969447;28;19989;-60
2024/02/10 01:08:24;;;;;;;;;;;10.20;91.40;;;;;;4960041;28;19949;-60
2024/02/10 01:10:57;;;;;;;;;;;10.20;91.40;;;;;;4968022;28;20021;-58
2024/02/10 01:13:32;;;;;;;;;;;10.30;91.30;;;;;;4968279;28;19931;-61
2024/02/10 01:16:05;;;;;;;;;;;10.30;91.30;;;;;;4967847;28;20037;-58
2024/02/10 01:18:39;;;;;;;;;;;10.20;91.30;;;;;;4969854;28;19930;-60
2024/02/10 01:21:13;;;;;;;;;;;10.20;91.40;;;;;;4964403;28;20012;-60
2024/02/10 01:23:49;;;;;;;;;;;10.20;91.40;;;;;;4972102;28;19929;-59
2024/02/10 01:26:22;;;;;;;;;;;10.20;91.50;;;;;;4970502;28;19926;-59
2024/02/10 01:28:55;;;;;;;;;;;10.20;91.40;;;;;;4970879;28;19930;-59
2024/02/10 01:31:28;;;;;;;;;;;10.20;91.50;;;;;;4970941;28;20384;-61
2024/02/10 01:34:02;;;;;;;;;;;10.20;91.50;;;;;;4970951;28;19937;-61
2024/02/10 01:36:36;;;;;;;;;;;10.20;91.40;;;;;;4972329;28;19962;-59
2024/02/10 01:39:03;;;;;;;;;;;10.20;91.40;;;;;;4970184;28;19930;-59
2024/02/10 01:41:36;;;;;;;;;;;10.20;91.50;;;;;;4972024;28;20017;-59
2024/02/10 01:44:09;;;;;;;;;;;10.20;91.60;;;;;;4971592;28;19932;-61
2024/02/10 01:46:43;;;;;;;;;;;10.20;91.60;;;;;;4967035;28;19933;-61
2024/02/10 01:49:17;;;;;;;;;;;10.20;91.50;;;;;;4971790;28;19926;-60
2024/02/10 01:51:51;;;;;;;;;;;10.20;91.40;;;;;;4971284;28;19926;-61
2024/02/10 01:54:24;;;;;;;;;;;10.20;91.40;;;;;;4971876;28;19926;-61
2024/02/10 01:57:05;;;;;;;;;;;10.20;91.50;;;;;;4963427;28;19930;-60
2024/02/10 01:59:38;;;;;;;;;;;10.10;91.50;;;;;;4963530;28;19941;-62
2024/02/10 02:02:14;;;;;;;;;;;10.10;91.50;;;;;;4962796;28;19934;-59
2024/02/10 02:04:48;;;;;;;;;;;10.20;91.50;;;;;;4961057;28;19992;-61
2024/02/10 02:07:22;;;;;;;;;;;10.10;91.50;;;;;;4965985;28;19980;-61
2024/02/10 02:09:55;;;;;;;;;;;10.10;91.50;;;;;;4970876;28;20289;-60
2024/02/10 02:12:28;;;;;;;;;;;10.10;91.60;;;;;;4969171;28;19926;-61
2024/02/10 02:15:05;;;;;;;;;;;10.10;91.60;;;;;;4970080;28;19930;-61
2024/02/10 02:17:39;;;;;;;;;;;10.10;91.60;;;;;;4968661;28;19926;-60
2024/02/10 02:20:13;;;;;;;;;;;10.10;91.60;;;;;;4967330;28;19936;-60
2024/02/10 02:22:49;;;;;;;;;;;10.10;91.60;;;;;;4966774;28;19930;-60
2024/02/10 02:25:23;;;;;;;;;;;10.10;91.60;;;;;;4966497;28;19926;-62
2024/02/10 02:27:58;;;;;;;;;;;10.10;91.60;;;;;;4963782;28;19926;-62
2024/02/10 02:30:35;;;;;;;;;;;10.10;91.60;;;;;;4963592;28;19933;-61
2024/02/10 02:33:10;;;;;;;;;;;10.10;91.60;;;;;;4969076;28;19944;-61
2024/02/10 02:35:44;;;;;;;;;;;10.10;91.50;;;;;;4966085;28;19932;-60
2024/02/10 02:38:19;;;;;;;;;;;10.10;91.40;;;;;;4968935;28;20456;-62
2024/02/10 02:40:52;;;;;;;;;;;10.10;91.50;;;;;;4960534;28;21859;-60
2024/02/10 02:43:26;;;;;;;;;;;10.10;91.50;;;;;;4960181;28;19926;-60
2024/02/10 02:45:59;;;;;;;;;;;10.10;91.50;;;;;;4955180;28;19977;-61
2024/02/10 02:48:32;;;;;;;;;;;10.10;91.60;;;;;;4963432;28;21255;-60
2024/02/10 02:51:05;;;;;;;;;;;10.10;91.50;;;;;;4965496;28;20490;-60
2024/02/10 02:53:39;;;;;;;;;;;10.10;91.60;;;;;;4968776;28;20744;-73
2024/02/10 02:56:14;;;;;;;;;;;10.00;91.60;;;;;;4965125;28;20382;-73
2024/02/10 02:58:49;;;;;;;;;;;10.00;91.60;;;;;;4959365;28;19953;-73
2024/02/10 03:01:22;;;;;;;;;;;10.00;91.60;;;;;;4964375;28;20037;-72
2024/02/10 03:03:55;;;;;;;;;;;10.00;91.60;;;;;;4962792;28;19941;-72
2024/02/10 03:06:28;;;;;;;;;;;10.10;91.60;;;;;;4964318;28;19933;-74
2024/02/10 03:09:03;;;;;;;;;;;10.00;91.60;;;;;;4966370;28;19998;-73
2024/02/10 03:11:37;;;;;;;;;;;10.00;91.60;;;;;;4966303;28;19985;-73
2024/02/10 03:14:03;;;;;;;;;;;10.00;91.70;;;;;;4968580;28;19926;-72
2024/02/10 03:16:38;;;;;;;;;;;10.00;91.70;;;;;;4968908;28;20440;-73
2024/02/10 03:19:12;;;;;;;;;;;10.00;91.70;;;;;;4970620;28;19934;-72
2024/02/10 03:21:45;;;;;;;;;;;10.00;91.70;;;;;;4969935;28;20042;-72
2024/02/10 03:24:19;;;;;;;;;;;10.00;91.70;;;;;;4966766;28;19945;-72
2024/02/10 03:26:53;;;;;;;;;;;10.00;91.70;;;;;;4965148;28;19926;-73
2024/02/10 03:29:26;;;;;;;;;;;10.00;91.60;;;;;;4967697;28;20852;-73
2024/02/10 03:32:01;;;;;;;;;;;10.00;91.60;;;;;;4964685;28;19934;-72
2024/02/10 03:34:34;;;;;;;;;;;10.00;91.60;;;;;;4967083;28;19981;-72
2024/02/10 03:37:01;;;;;;;;;;;10.00;91.60;;;;;;4967698;28;19981;-72
2024/02/10 03:39:35;;;;;;;;;;;10.00;91.60;;;;;;4969090;28;20392;-73
2024/02/10 03:42:09;;;;;;;;;;;10.00;91.70;;;;;;4967793;28;19930;-74
2024/02/10 03:44:42;;;;;;;;;;;10.00;91.70;;;;;;4963663;28;20381;-71
2024/02/10 03:47:15;;;;;;;;;;;10.00;91.60;;;;;;4966843;28;19930;-73
2024/02/10 03:49:48;;;;;;;;;;;10.00;91.60;;;;;;4969561;28;19937;-73
2024/02/10 03:52:25;;;;;;;;;;;10.00;91.70;;;;;;4968761;28;19973;-73
2024/02/10 03:54:59;;;;;;;;;;;10.00;91.70;;;;;;4967187;28;19926;-73
2024/02/10 03:57:33;;;;;;;;;;;10.00;91.70;;;;;;4967488;28;19929;-73
2024/02/10 04:00:10;;;;;;;;;;;10.00;91.60;;;;;;4963353;28;19960;-74
2024/02/10 04:02:45;;;;;;;;;;;10.00;91.70;;;;;;4970171;28;19937;-68
2024/02/10 04:05:18;;;;;;;;;;;9.90;91.60;;;;;;4967294;28;19930;-68
2024/02/10 04:07:52;;;;;;;;;;;9.90;91.60;;;;;;4966391;28;19930;-69
2024/02/10 04:10:28;;;;;;;;;;;9.90;91.60;;;;;;4967924;28;19932;-68
2024/02/10 04:12:54;;;;;;;;;;;9.90;91.60;;;;;;4965931;28;19993;-68
2024/02/10 04:15:30;;;;;;;;;;;9.90;91.70;;;;;;4962422;28;19930;-68
2024/02/10 04:18:05;;;;;;;;;;;9.90;91.60;;;;;;4965081;28;19977;-69
2024/02/10 04:24:06;;;;;;;;;;;9.90;91.60;;;;;;4965140;28;19933;-68
2024/02/10 04:26:40;;;;;;;;;;;9.90;91.70;;;;;;4969545;28;20385;-68
2024/02/10 04:29:21;;;;;;;;;;;9.90;91.70;;;;;;4967241;28;20021;-69
2024/02/10 04:31:58;;;;;;;;;;;9.90;91.70;;;;;;4963886;28;19930;-69
2024/02/10 04:34:32;;;;;;;;;;;9.90;91.80;;;;;;4964751;28;20546;-68
2024/02/10 04:37:06;;;;;;;;;;;9.90;91.80;;;;;;4966087;28;19969;-69
2024/02/10 04:39:40;;;;;;;;;;;9.80;91.80;;;;;;4966706;28;19930;-69
2024/02/10 04:42:15;;;;;;;;;;;9.90;91.80;;;;;;4966601;28;20292;-69
2024/02/10 04:44:52;;;;;;;;;;;9.90;91.80;;;;;;4967015;28;19930;-69
2024/02/10 04:47:25;;;;;;;;;;;9.90;91.80;;;;;;4964935;28;20393;-68
2024/02/10 04:50:01;;;;;;;;;;;9.90;91.80;;;;;;4967143;28;20396;-69
2024/02/10 04:52:34;;;;;;;;;;;9.90;91.80;;;;;;4964843;28;19930;-68
2024/02/10 04:55:08;;;;;;;;;;;9.90;91.70;;;;;;4968439;28;19936;-68
2024/02/10 04:57:43;;;;;;;;;;;9.90;91.70;;;;;;4971211;28;19932;-69
2024/02/10 05:00:17;;;;;;;;;;;9.90;91.70;;;;;;4968249;28;19938;-69
2024/02/10 05:02:51;;;;;;;;;;;9.90;91.70;;;;;;4973396;28;20365;-68
2024/02/10 05:05:25;;;;;;;;;;;9.90;91.80;;;;;;4973560;28;19933;-68
2024/02/10 05:07:58;;;;;;;;;;;9.90;91.80;;;;;;4968553;28;20741;-69
2024/02/10 05:10:31;;;;;;;;;;;9.90;91.80;;;;;;4972918;28;20894;-69
2024/02/10 05:13:06;;;;;;;;;;;9.90;91.80;;;;;;4970483;28;19926;-59
2024/02/10 05:15:39;;;;;;;;;;;9.90;91.80;;;;;;4969180;28;20502;-59
2024/02/10 05:18:12;;;;;;;;;;;9.90;91.80;;;;;;4969734;28;20084;-58
2024/02/10 05:20:45;;;;;;;;;;;9.90;91.80;;;;;;4971387;28;20710;-59
2024/02/10 05:23:19;;;;;;;;;;;9.90;91.80;;;;;;4972413;28;20040;-59
2024/02/10 05:25:53;;;;;;;;;;;9.90;91.90;;;;;;4960930;28;19989;-59
2024/02/10 05:28:28;;;;;;;;;;;9.80;91.80;;;;;;4967664;28;20280;-59
2024/02/10 05:31:04;;;;;;;;;;;9.80;91.80;;;;;;4969920;28;20366;-60
2024/02/10 05:33:37;;;;;;;;;;;9.80;91.90;;;;;;4971296;28;20105;-58
2024/02/10 05:36:10;;;;;;;;;;;9.80;91.90;;;;;;4971070;28;20013;-59
2024/02/10 05:38:43;;;;;;;;;;;9.80;92.00;;;;;;4965407;28;20037;-58
2024/02/10 05:41:18;;;;;;;;;;;9.80;91.90;;;;;;4969929;28;19926;-58
2024/02/10 05:43:53;;;;;;;;;;;9.80;91.90;;;;;;4970724;28;20305;-60
2024/02/10 05:46:27;;;;;;;;;;;9.80;91.90;;;;;;4967532;28;20384;-59
2024/02/10 05:49:01;;;;;;;;;;;9.80;91.80;;;;;;4965620;28;19937;-58
2024/02/10 05:51:38;;;;;;;;;;;9.80;91.80;;;;;;4970102;28;19977;-58
2024/02/10 05:54:11;;;;;;;;;;;9.80;91.80;;;;;;4969712;28;20318;-58
2024/02/10 05:56:44;;;;;;;;;;;9.80;91.80;;;;;;4969295;28;20397;-60
2024/02/10 05:59:19;;;;;;;;;;;9.80;91.80;;;;;;4967188;28;20375;-58
2024/02/10 06:01:53;;;;;;;;;;;9.80;91.90;;;;;;4969354;28;20017;-60
2024/02/10 06:04:27;;;;;;;;;;;9.80;91.90;;;;;;4969888;28;19926;-59
2024/02/10 06:07:00;;;;;;;;;;;9.80;92.00;;;;;;4966185;28;19926;-60
2024/02/10 06:09:33;;;;;;;;;;;9.80;92.00;;;;;;4969042;28;19933;-59
2024/02/10 06:12:06;;;;;;;;;;;9.80;92.00;;;;;;4964410;28;20378;-59
2024/02/10 06:14:48;;;;;;;;;;;9.80;92.00;;;;;;4969913;28;19926;-59
2024/02/10 06:17:23;;;;;;;;;;;9.80;91.90;;;;;;4969170;28;20001;-60
2024/02/10 06:19:58;;;;;;;;;;;9.80;91.90;;;;;;4971999;28;19937;-57
2024/02/10 06:22:32;;;;;;;;;;;9.80;91.90;;;;;;4968647;28;19930;-66
2024/02/10 06:25:06;;;;;;;;;;;9.80;92.00;;;;;;4971258;28;19932;-67
2024/02/10 06:27:41;;;;;;;;;;;9.80;91.90;;;;;;4971365;28;19929;-66
2024/02/10 06:30:16;;;;;;;;;;;9.80;91.90;;;;;;4964512;28;19934;-65
2024/02/10 06:32:50;;;;;;;;;;;9.80;91.90;;;;;;4965773;28;19932;-66
2024/02/10 06:35:23;;;;;;;;;;;9.70;92.00;;;;;;4961607;28;19926;-66
2024/02/10 06:37:57;;;;;;;;;;;9.70;92.00;;;;;;4968175;28;19930;-66
2024/02/10 06:40:30;;;;;;;;;;;9.70;92.00;;;;;;4971120;28;19933;-66
2024/02/10 06:43:03;;;;;;;;;;;9.70;92.00;;;;;;4967650;28;19933;-66
2024/02/10 06:45:37;;;;;;;;;;;9.70;92.10;;;;;;4967883;28;19936;-66
2024/02/10 06:48:13;;;;;;;;;;;9.70;92.00;;;;;;4966995;28;19935;-67
2024/02/10 06:50:46;;;;;;;;;;;9.70;92.10;;;;;;4969048;28;19957;-67
2024/02/10 06:53:19;;;;;;;;;;;9.70;92.10;;;;;;4968329;28;19930;-67
2024/02/10 06:55:52;;;;;;;;;;;9.70;92.20;;;;;;4969997;28;20024;-65
2024/02/10 06:58:26;;;;;;;;;;;9.70;92.20;;;;;;4967507;28;19941;-67
2024/02/10 07:01:02;;;;;;;;;;;9.70;92.30;;;;;;4965568;28;19930;-66
2024/02/10 07:03:35;;;;;;;;;;;9.70;92.20;;;;;;4965937;28;20596;-67
2024/02/10 07:06:09;;;;;;;;;;;9.70;92.10;;;;;;4967018;28;20528;-65
2024/02/10 07:08:42;;;;;;;;;;;9.70;92.10;;;;;;4968365;28;20570;-67
2024/02/10 07:11:15;;;;;;;;;;;9.70;92.10;;;;;;4969376;28;19926;-67
2024/02/10 07:13:48;;;;;;;;;;;9.70;92.10;;;;;;4963987;28;20025;-67
2024/02/10 07:16:23;;;;;;;;;;;9.80;92.00;;;;;;4964103;28;19953;-68
2024/02/10 07:18:57;;;;;;;;;;;9.70;92.00;;;;;;4968860;28;20432;-69
2024/02/10 07:21:23;;;;;;;;;;;9.70;92.00;;;;;;4968252;28;20021;-66
2024/02/10 07:23:56;;;;;;;;;;;9.70;91.90;;;;;;4967444;28;19926;-68
2024/02/10 07:26:30;;;;;;;;;;;9.70;91.90;;;;;;4969068;28;19926;-66
2024/02/10 07:29:03;;;;;;;;;;;9.70;91.80;;;;;;4968217;28;19930;-66
2024/02/10 07:31:38;;;;;;;;;;;9.80;91.80;;;;;;4964067;28;19926;-66
2024/02/10 07:34:11;;;;;;;;;;;9.80;91.80;;;;;;4965515;28;19934;-72
2024/02/10 07:36:44;;;;;;;;;;;9.80;91.80;;;;;;4966226;28;19976;-73
2024/02/10 07:39:21;;;;;;;;;;;9.80;91.80;;;;;;4966655;28;20033;-71
2024/02/10 07:41:54;;;;;;;;;;;9.80;91.90;;;;;;4967783;28;20013;-72
2024/02/10 07:44:28;;;;;;;;;;;9.90;91.70;;;;;;4965656;28;19930;-70
2024/02/10 07:47:05;;;;;;;;;;;9.90;91.70;;;;;;4967815;28;19992;-71
2024/02/10 07:49:53;;;;;;;;;;;10.00;91.80;;;;;;4966102;28;20127;-73
2024/02/10 07:52:33;;;;;;;;;;;10.10;91.80;;;;;;4967663;28;19933;-72
2024/02/10 07:55:09;;;;;;;;;;;10.00;91.70;;;;;;4965469;28;19945;-72
2024/02/10 07:57:42;;;;;;;;;;;10.00;91.80;;;;;;4968109;28;19926;-72
2024/02/10 08:00:18;;;;;;;;;;;10.10;91.90;;;;;;4962971;28;19926;-72
2024/02/10 08:02:53;;;;;;;;;;;10.10;91.90;;;;;;4968325;28;19933;-73
2024/02/10 08:05:26;;;;;;;;;;;10.10;91.80;;;;;;4966208;28;20412;-72
2024/02/10 08:08:03;;;;;;;;;;;10.20;91.70;;;;;;4966489;28;20012;-72
2024/02/10 08:10:37;;;;;;;;;;;10.20;91.90;;;;;;4964399;28;19935;-73
2024/02/10 08:13:10;;;;;;;;;;;10.20;91.80;;;;;;4962625;28;19941;-73
2024/02/10 08:15:46;;;;;;;;;;;10.20;91.80;;;;;;4961479;28;19926;-73
2024/02/10 08:18:21;;;;;;;;;;;10.30;91.90;;;;;;4965993;28;19930;-71
2024/02/10 08:20:57;;;;;;;;;;;10.40;91.70;;;;;;4966628;28;19977;-71
2024/02/10 08:23:30;;;;;;;;;;;10.50;91.70;;;;;;4968127;28;20382;-72
2024/02/10 08:26:03;;;;;;;;;;;10.60;91.60;;;;;;4975149;28;20361;-72
2024/02/10 08:28:37;;;;;;;;;;;10.70;91.70;;;;;;4961188;28;19929;-72
2024/02/10 08:31:13;;;;;;;;;;;10.60;91.50;;;;;;4963232;28;21660;-72
2024/02/10 08:33:48;;;;;;;;;;;10.70;91.50;;;;;;4964056;28;19930;-72
2024/02/10 08:36:21;;;;;;;;;;;10.70;91.40;;;;;;4966154;28;19981;-72
2024/02/10 08:39:03;;;;;;;;;;;10.70;91.30;;;;;;4968554;28;19926;-72
2024/02/10 08:41:37;;;;;;;;;;;10.80;91.30;;;;;;4966398;28;19969;-72
2024/02/10 08:44:10;;;;;;;;;;;10.80;91.20;;;;;;4963559;28;20054;-72
2024/02/10 08:46:43;;;;;;;;;;;10.80;91.20;;;;;;4964286;28;19926;-72
2024/02/10 08:49:18;;;;;;;;;;;10.80;91.00;;;;;;4969255;28;19973;-73
2024/02/10 08:51:54;;;;;;;;;;;10.90;91.10;;;;;;4962359;28;20326;-72
2024/02/10 08:54:30;;;;;;;;;;;10.90;91.00;;;;;;4966005;28;19936;-60
2024/02/10 08:57:09;;;;;;;;;;;10.90;90.90;;;;;;4965981;28;20420;-59
2024/02/10 08:59:45;;;;;;;;;;;11.00;90.90;;;;;;4968489;28;19932;-59
2024/02/10 09:02:22;;;;;;;;;;;11.10;90.80;;;;;;4965076;28;19982;-61
2024/02/10 09:04:57;;;;;;;;;;;11.10;90.70;;;;;;4967045;28;19960;-60
2024/02/10 09:07:29;;;;;;;;;;;11.10;90.60;;;;;;4966706;28;19934;-60
2024/02/10 09:10:02;;;;;;;;;;;11.10;90.60;;;;;;4965483;28;19930;-60
2024/02/10 09:12:35;;;;;;;;;;;11.20;90.40;;;;;;4966888;28;19930;-59
2024/02/10 09:15:09;;;;;;;;;;;11.10;90.30;;;;;;4963214;28;19953;-59
2024/02/10 09:17:42;;;;;;;;;;;11.10;90.40;;;;;;4968629;28;19926;-59
2024/02/10 09:20:17;;;;;;;;;;;11.10;90.30;;;;;;4969022;28;20370;-60
2024/02/10 09:22:51;;;;;;;;;;;11.10;90.20;;;;;;4967314;28;19965;-59
2024/02/10 09:25:26;;;;;;;;;;;11.10;90.20;;;;;;4967453;28;20025;-59
2024/02/10 09:27:59;;;;;;;;;;;11.20;90.30;;;;;;4966210;28;19930;-59
2024/02/10 09:30:35;;;;;;;;;;;11.20;90.30;;;;;;4966706;28;19934;-59
2024/02/10 09:33:19;;;;;;;;;;;11.20;90.20;;;;;;4965066;28;19973;-60
2024/02/10 09:35:54;;;;;;;;;;;11.20;90.10;;;;;;4966473;28;20087;-60
2024/02/10 09:38:27;;;;;;;;;;;11.30;89.90;;;;;;4966837;28;20365;-60
2024/02/10 09:41:03;;;;;;;;;;;11.30;89.80;;;;;;4963599;28;19953;-58
2024/02/10 09:43:37;;;;;;;;;;;11.30;89.80;;;;;;4965937;28;20037;-59
2024/02/10 09:46:10;;;;;;;;;;;11.40;89.80;;;;;;4968832;28;19945;-60
2024/02/10 09:48:47;;;;;;;;;;;11.40;89.70;;;;;;4971969;28;19937;-60
2024/02/10 09:51:22;;;;;;;;;;;11.50;89.70;;;;;;4970024;28;19930;-59
2024/02/10 09:53:55;;;;;;;;;;;11.50;89.70;;;;;;4967782;28;19953;-63
2024/02/10 09:56:29;;;;;;;;;;;11.60;89.50;;;;;;4969708;28;19926;-60
2024/02/10 09:59:03;;;;;;;;;;;11.60;89.40;;;;;;4966868;28;19930;-60
2024/02/10 10:01:37;;;;;;;;;;;11.60;89.60;;;;;;4970461;28;19937;-59
2024/02/10 10:04:11;;;;;;;;;;;11.60;89.50;;;;;;4970194;28;20301;-59
2024/02/10 10:06:46;;;;;;;;;;;11.70;89.50;;;;;;4970467;28;20495;-59
2024/02/10 10:09:19;;;;;;;;;;;11.60;89.50;;;;;;4969105;28;19945;-60
2024/02/10 10:11:53;;;;;;;;;;;11.60;89.30;;;;;;4968545;28;20032;-60
2024/02/10 10:14:26;;;;;;;;;;;11.70;89.50;;;;;;4965495;28;19934;-60
2024/02/10 10:17:03;;;;;;;;;;;11.70;89.30;;;;;;4959900;28;20550;-60
2024/02/10 10:19:36;;;;;;;;;;;11.70;89.30;;;;;;4967729;28;19935;-60
2024/02/10 10:22:11;;;;;;;;;;;11.70;89.30;;;;;;4967256;28;19948;-60
2024/02/10 10:24:43;;;;;;;;;;;11.70;89.10;;;;;;4968620;28;19926;-60
2024/02/10 10:27:22;;;;;;;;;;;11.80;89.00;;;;;;4967871;28;19977;-61
2024/02/10 10:29:55;;;;;;;;;;;11.80;89.10;;;;;;4979087;28;19934;-59
2024/02/10 10:32:22;;;;;;;;;;;11.90;89.20;;;;;;4968780;28;19933;-60
2024/02/10 10:34:56;;;;;;;;;;;11.90;89.10;;;;;;4963816;28;19926;-60
2024/02/10 10:37:32;;;;;;;;;;;11.90;88.90;;;;;;4972002;28;19927;-60
2024/02/10 10:40:07;;;;;;;;;;;11.90;88.70;;;;;;4966532;28;23323;-63
2024/02/10 10:42:41;;;;;;;;;;;11.90;88.80;;;;;;4964448;28;19926;-59
2024/02/10 10:45:16;;;;;;;;;;;12.00;88.60;;;;;;4963830;28;19926;-62
2024/02/10 10:47:49;;;;;;;;;;;12.00;88.60;;;;;;4972490;28;19949;-59
2024/02/10 10:50:22;;;;;;;;;;;12.00;88.60;;;;;;4973474;28;19961;-60
2024/02/10 10:52:51;;;;;;;;;;;12.00;88.30;;;;;;4972587;28;20369;-60
2024/02/10 10:55:27;;;;;;;;;;;12.00;88.20;;;;;;4968572;28;19930;-60
2024/02/10 10:58:04;;;;;;;;;;;12.10;88.30;;;;;;4966631;28;20020;-60
2024/02/10 11:00:40;;;;;;;;;;;12.20;88.00;;;;;;4966374;28;19935;-60
2024/02/10 11:03:14;;;;;;;;;;;12.20;87.80;;;;;;4970139;28;20005;-60
2024/02/10 11:05:49;;;;;;;;;;;12.20;87.80;;;;;;4968015;28;19930;-61
2024/02/10 11:08:25;;;;;;;;;;;12.20;87.70;;;;;;4970328;28;20027;-61
2024/02/10 11:10:59;;;;;;;;;;;12.20;87.60;;;;;;4970983;28;19933;-61
2024/02/10 11:13:32;;;;;;;;;;;12.30;87.60;;;;;;4970394;28;19926;-60
2024/02/10 11:16:10;;;;;;;;;;;12.30;87.50;;;;;;4967156;28;19957;-60
2024/02/10 11:18:44;;;;;;;;;;;12.30;87.20;;;;;;4968311;28;19933;-63
2024/02/10 11:21:19;;;;;;;;;;;12.30;87.20;;;;;;4968476;28;19941;-64
2024/02/10 11:23:59;;;;;;;;;;;12.40;87.20;;;;;;4966630;28;19938;-66
2024/02/10 11:26:33;;;;;;;;;;;12.40;87.20;;;;;;4963509;28;20024;-67
2024/02/10 11:29:07;;;;;;;;;;;12.40;87.20;;;;;;4961352;28;19930;-66
2024/02/10 11:31:41;;;;;;;;;;;12.40;87.10;;;;;;4958503;28;19942;-67
2024/02/10 11:34:11;;;;;;;;;;;12.40;87.10;;;;;;4957850;28;19926;-67
2024/02/10 11:36:51;;;;;;;;;;;12.50;87.10;;;;;;4965158;28;19934;-67
2024/02/10 11:39:27;;;;;;;;;;;12.50;87.00;;;;;;4969523;28;19929;-67
2024/02/10 11:42:00;;;;;;;;;;;12.50;87.10;;;;;;4969472;28;20397;-68
2024/02/10 11:44:36;;;;;;;;;;;12.60;87.00;;;;;;4970245;28;19964;-67
2024/02/10 11:47:08;;;;;;;;;;;12.60;86.90;;;;;;4956803;28;20370;-67
2024/02/10 11:49:41;;;;;;;;;;;12.60;86.90;;;;;;4962280;28;19926;-66
2024/02/10 11:52:15;;;;;;;;;;;12.60;86.80;;;;;;4965769;28;19941;-67
2024/02/10 11:54:52;;;;;;;;;;;12.60;86.70;;;;;;4963570;28;20332;-66
2024/02/10 11:57:27;;;;;;;;;;;12.60;86.50;;;;;;4961195;28;19934;-66
2024/02/10 12:00:03;;;;;;;;;;;12.70;86.30;;;;;;4963202;28;20284;-67
2024/02/10 12:02:43;;;;;;;;;;;12.70;86.20;;;;;;4966530;28;20016;-68
2024/02/10 12:05:20;;;;;;;;;;;12.80;86.10;;;;;;4963916;28;20448;-69
2024/02/10 12:07:54;;;;;;;;;;;12.90;86.00;;;;;;4959350;28;19958;-68
2024/02/10 12:10:28;;;;;;;;;;;12.90;86.00;;;;;;4956063;28;19933;-68
2024/02/10 12:13:01;;;;;;;;;;;12.90;85.70;;;;;;4960960;28;20357;-68
2024/02/10 12:15:34;;;;;;;;;;;13.00;85.70;;;;;;4958776;28;19930;-69
2024/02/10 12:18:08;;;;;;;;;;;13.10;85.60;;;;;;4961119;28;19934;-69
2024/02/10 12:20:48;;;;;;;;;;;13.10;85.40;;;;;;4962446;28;19929;-69
2024/02/10 12:23:21;;;;;;;;;;;13.10;85.30;;;;;;4963976;28;20017;-68
2024/02/10 12:25:56;;;;;;;;;;;13.10;85.50;;;;;;4958267;28;19934;-67
2024/02/10 12:28:23;;;;;;;;;;;13.10;85.40;;;;;;4967157;28;19930;-69
2024/02/10 12:30:56;;;;;;;;;;;13.10;85.10;;;;;;4963102;28;19938;-67
2024/02/10 12:33:29;;;;;;;;;;;13.10;85.10;;;;;;4965328;28;20305;-62
2024/02/10 12:36:03;;;;;;;;;;;13.10;85.00;;;;;;4963164;28;19926;-61
2024/02/10 12:38:30;;;;;;;;;;;13.10;85.00;;;;;;4959253;28;19926;-64
2024/02/10 12:41:05;;;;;;;;;;;13.10;84.60;;;;;;4960028;28;20390;-62
2024/02/10 12:43:42;;;;;;;;;;;13.10;84.70;;;;;;4965805;28;19930;-62
2024/02/10 12:46:15;;;;;;;;;;;13.10;84.50;;;;;;4957960;28;19937;-63
2024/02/10 12:48:50;;;;;;;;;;;13.10;84.50;;;;;;4966090;28;20032;-63
2024/02/10 12:51:24;;;;;;;;;;;13.10;84.40;;;;;;4958157;28;19926;-63
2024/02/10 12:53:54;;;;;;;;;;;13.10;84.40;;;;;;4965113;28;19930;-65
2024/02/10 12:56:28;;;;;;;;;;;13.00;84.50;;;;;;4963939;28;19973;-61
2024/02/10 12:59:06;;;;;;;;;;;13.10;84.50;;;;;;4963412;28;19941;-62
2024/02/10 13:01:39;;;;;;;;;;;13.10;84.50;;;;;;4960333;28;19934;-61
2024/02/10 13:04:14;;;;;;;;;;;13.10;84.00;;;;;;4956190;28;20048;-62
2024/02/10 13:06:49;;;;;;;;;;;13.10;84.30;;;;;;4962612;28;20381;-62
2024/02/10 13:09:22;;;;;;;;;;;13.10;84.10;;;;;;4960452;28;20853;-62
2024/02/10 13:11:56;;;;;;;;;;;13.10;84.10;;;;;;4960345;28;19927;-61
2024/02/10 13:14:29;;;;;;;;;;;13.10;83.90;;;;;;4959666;28;19934;-62
2024/02/10 13:17:02;;;;;;;;;;;13.10;84.20;;;;;;4962594;28;19930;-62
2024/02/10 13:19:29;;;;;;;;;;;13.00;84.20;;;;;;4968548;28;20381;-63
2024/02/10 13:22:02;;;;;;;;;;;13.00;84.30;;;;;;4957750;28;20074;-62
2024/02/10 13:24:35;;;;;;;;;;;12.90;84.20;;;;;;4962429;28;19934;-61
2024/02/10 13:27:10;;;;;;;;;;;12.90;84.20;;;;;;4964893;28;20005;-60
2024/02/10 13:29:43;;;;;;;;;;;12.90;84.20;;;;;;4968092;28;19930;-62
2024/02/10 13:32:16;;;;;;;;;;;12.90;84.40;;;;;;4963298;28;19930;-63
2024/02/10 13:34:50;;;;;;;;;;;12.90;84.10;;;;;;4971519;28;19936;-62
2024/02/10 14:00:29;;;;;;;;;;;12.90;83.50;;;;;;4968703;28;19926;-69
2024/02/10 14:03:04;;;;;;;;;;;12.80;83.20;;;;;;4965221;28;19933;-68
2024/02/10 14:05:55;;;;;;;;;;;12.70;82.90;;;;;;4954016;28;19929;-68
2024/02/10 14:08:44;;;;;;;;;;;12.70;83.90;;;;;;4963871;28;19953;-69
2024/02/10 14:11:22;;;;;;;;;;;12.70;83.50;;;;;;4959980;28;19941;-69
2024/02/10 14:13:55;;;;;;;;;;;12.80;84.00;;;;;;4963845;28;19930;-70
2024/02/10 14:16:33;;;;;;;;;;;12.70;83.50;;;;;;4960984;28;19930;-70
2024/02/10 14:19:13;;;;;;;;;;;12.70;83.60;;;;;;4964739;28;19934;-69
2024/02/10 14:21:48;;;;;;;;;;;12.70;83.20;;;;;;4964752;28;20048;-70
2024/02/10 14:24:22;;;;;;;;;;;12.70;83.60;;;;;;4962812;28;19933;-70
2024/02/10 14:27:00;;;;;;;;;;;12.70;83.80;;;;;;4963589;28;20395;-69
2024/02/10 14:29:36;;;;;;;;;;;12.70;83.60;;;;;;4962596;28;19993;-69
2024/02/10 14:32:13;;;;;;;;;;;12.60;83.70;;;;;;4960091;28;19981;-69
2024/02/10 14:35:03;;;;;;;;;;;12.60;83.90;;;;;;4964928;28;20033;-71
2024/02/10 14:37:46;;;;;;;;;;;12.60;83.80;;;;;;4960495;28;19941;-71
2024/02/10 14:40:33;;;;;;;;;;;12.60;83.50;;;;;;4963986;28;19959;-69
2024/02/10 14:43:09;;;;;;;;;;;12.60;84.10;;;;;;4964170;28;19933;-70
2024/02/10 14:45:42;;;;;;;;;;;12.60;84.00;;;;;;4965303;28;19926;-71
2024/02/10 14:48:17;;;;;;;;;;;12.60;84.00;;;;;;4963314;28;19926;-69
2024/02/10 14:50:52;;;;;;;;;;;12.60;84.40;;;;;;4968253;28;19933;-68
2024/02/10 14:53:32;;;;;;;;;;;12.60;84.40;;;;;;4963264;28;20011;-69
2024/02/10 14:56:10;;;;;;;;;;;12.60;84.60;;;;;;4963950;28;19953;-68
2024/02/10 14:58:43;;;;;;;;;;;12.50;84.80;;;;;;4966645;28;20036;-68
2024/02/10 15:01:16;;;;;;;;;;;12.50;84.90;;;;;;4960553;28;19930;-69
2024/02/10 15:03:51;;;;;;;;;;;12.50;84.90;;;;;;4967201;28;19930;-68
2024/02/10 15:06:27;;;;;;;;;;;12.50;85.00;;;;;;4959667;28;19929;-69
2024/02/10 15:09:02;;;;;;;;;;;12.50;85.10;;;;;;4964205;28;19938;-69
2024/02/10 15:11:37;;;;;;;;;;;12.40;84.90;;;;;;4963666;28;19926;-68
2024/02/10 15:14:09;;;;;;;;;;;12.40;85.10;;;;;;4962777;28;19937;-70
2024/02/10 15:16:42;;;;;;;;;;;12.40;85.30;;;;;;4961284;28;19926;-69
2024/02/10 15:19:17;;;;;;;;;;;12.40;85.00;;;;;;4959923;28;19934;-68
2024/02/10 15:21:52;;;;;;;;;;;12.30;85.20;;;;;;4958873;28;19930;-68
2024/02/10 15:24:27;;;;;;;;;;;12.30;85.20;;;;;;4968902;28;19930;-70
2024/02/10 15:27:04;;;;;;;;;;;12.30;85.20;;;;;;4962172;28;19933;-68
2024/02/10 15:29:37;;;;;;;;;;;12.30;85.50;;;;;;4963113;28;19934;-68